sensor_id;sensor_type;location;lat;lon;timestamp;P1;durP1;ratioP1;P2;durP2;ratioP2
3337;SDS011;1682;49.286;10.788;2024-01-30T00:00:29;4.90;;;4.50;;
3337;SDS011;1682;49.286;10.788;2024-01-30T00:03:16;8.93;;;5.70;;
3337;SDS011;1682;49.286;10.788;2024-01-30T00:06:04;8.03;;;5.37;;
3337;SDS011;1682;49.286;10.788;2024-01-30T00:08:51;5.37;;;4.70;;
3337;SDS011;1682;49.286;10.788;2024-01-30T00:11:39;7.03;;;5.97;;
3337;SDS011;1682;49.286;10.788;2024-01-30T00:14:28;6.37;;;5.77;;
3337;SDS011;1682;49.286;10.788;2024-01-30T00:17:15;5.83;;;4.77;;
3337;SDS011;1682;49.286;10.788;2024-01-30T00:20:05;5.10;;;4.77;;
3337;SDS011;1682;49.286;10.788;2024-01-30T00:22:54;11.43;;;6.20;;
3337;SDS011;1682;49.286;10.788;2024-01-30T00:25:41;7.30;;;5.30;;
3337;SDS011;1682;49.286;10.788;2024-01-30T00:28:29;6.00;;;5.20;;
3337;SDS011;1682;49.286;10.788;2024-01-30T00:31:18;6.77;;;6.27;;
3337;SDS011;1682;49.286;10.788;2024-01-30T00:34:05;9.43;;;5.27;;
3337;SDS011;1682;49.286;10.788;2024-01-30T00:36:53;7.00;;;5.53;;
3337;SDS011;1682;49.286;10.788;2024-01-30T00:39:40;5.13;;;4.40;;
3337;SDS011;1682;49.286;10.788;2024-01-30T00:42:28;11.00;;;8.17;;
3337;SDS011;1682;49.286;10.788;2024-01-30T00:45:15;10.50;;;6.67;;
3337;SDS011;1682;49.286;10.788;2024-01-30T00:48:05;12.90;;;7.23;;
3337;SDS011;1682;49.286;10.788;2024-01-30T00:50:52;6.57;;;5.27;;
3337;SDS011;1682;49.286;10.788;2024-01-30T00:53:40;9.77;;;7.70;;
3337;SDS011;1682;49.286;10.788;2024-01-30T00:56:28;8.47;;;5.70;;
3337;SDS011;1682;49.286;10.788;2024-01-30T00:59:16;6.57;;;5.90;;
3337;SDS011;1682;49.286;10.788;2024-01-30T01:02:03;10.07;;;6.10;;
3337;SDS011;1682;49.286;10.788;2024-01-30T01:04:52;14.37;;;9.27;;
3337;SDS011;1682;49.286;10.788;2024-01-30T01:07:40;11.60;;;8.00;;
3337;SDS011;1682;49.286;10.788;2024-01-30T01:10:28;15.03;;;10.30;;
3337;SDS011;1682;49.286;10.788;2024-01-30T01:13:15;8.53;;;5.80;;
3337;SDS011;1682;49.286;10.788;2024-01-30T01:16:03;17.20;;;10.63;;
3337;SDS011;1682;49.286;10.788;2024-01-30T01:18:50;9.50;;;6.53;;
3337;SDS011;1682;49.286;10.788;2024-01-30T01:21:39;5.80;;;4.37;;
3337;SDS011;1682;49.286;10.788;2024-01-30T01:24:27;14.67;;;8.90;;
3337;SDS011;1682;49.286;10.788;2024-01-30T01:27:14;15.20;;;9.63;;
3337;SDS011;1682;49.286;10.788;2024-01-30T01:30:02;8.87;;;7.70;;
3337;SDS011;1682;49.286;10.788;2024-01-30T01:32:51;11.20;;;6.70;;
3337;SDS011;1682;49.286;10.788;2024-01-30T01:35:42;5.50;;;4.57;;
3337;SDS011;1682;49.286;10.788;2024-01-30T01:38:30;6.87;;;5.90;;
3337;SDS011;1682;49.286;10.788;2024-01-30T01:41:18;5.20;;;4.73;;
3337;SDS011;1682;49.286;10.788;2024-01-30T01:44:06;5.03;;;4.60;;
3337;SDS011;1682;49.286;10.788;2024-01-30T01:46:54;7.40;;;4.90;;
3337;SDS011;1682;49.286;10.788;2024-01-30T01:49:41;9.43;;;8.27;;
3337;SDS011;1682;49.286;10.788;2024-01-30T01:52:29;6.17;;;4.70;;
3337;SDS011;1682;49.286;10.788;2024-01-30T01:55:19;5.27;;;4.77;;
3337;SDS011;1682;49.286;10.788;2024-01-30T01:58:07;5.30;;;4.30;;
3337;SDS011;1682;49.286;10.788;2024-01-30T02:00:58;4.50;;;4.00;;
3337;SDS011;1682;49.286;10.788;2024-01-30T02:03:46;3.50;;;3.13;;
3337;SDS011;1682;49.286;10.788;2024-01-30T02:06:34;3.97;;;3.67;;
3337;SDS011;1682;49.286;10.788;2024-01-30T02:09:21;5.33;;;4.27;;
3337;SDS011;1682;49.286;10.788;2024-01-30T02:12:10;6.60;;;5.90;;
3337;SDS011;1682;49.286;10.788;2024-01-30T02:14:57;7.63;;;6.83;;
3337;SDS011;1682;49.286;10.788;2024-01-30T02:17:45;6.73;;;6.03;;
3337;SDS011;1682;49.286;10.788;2024-01-30T02:20:33;19.67;;;12.10;;
3337;SDS011;1682;49.286;10.788;2024-01-30T02:23:23;16.33;;;10.53;;
3337;SDS011;1682;49.286;10.788;2024-01-30T02:26:11;6.23;;;5.03;;
3337;SDS011;1682;49.286;10.788;2024-01-30T02:28:59;4.10;;;2.93;;
3337;SDS011;1682;49.286;10.788;2024-01-30T02:31:46;11.73;;;5.70;;
3337;SDS011;1682;49.286;10.788;2024-01-30T02:34:34;15.33;;;9.43;;
3337;SDS011;1682;49.286;10.788;2024-01-30T02:37:21;5.57;;;5.07;;
3337;SDS011;1682;49.286;10.788;2024-01-30T02:40:10;7.50;;;6.30;;
3337;SDS011;1682;49.286;10.788;2024-01-30T02:42:58;9.53;;;4.67;;
3337;SDS011;1682;49.286;10.788;2024-01-30T02:45:46;11.33;;;6.93;;
3337;SDS011;1682;49.286;10.788;2024-01-30T02:48:33;4.00;;;3.70;;
3337;SDS011;1682;49.286;10.788;2024-01-30T02:51:21;4.53;;;4.07;;
3337;SDS011;1682;49.286;10.788;2024-01-30T02:54:08;7.37;;;6.10;;
3337;SDS011;1682;49.286;10.788;2024-01-30T02:56:57;6.70;;;5.93;;
3337;SDS011;1682;49.286;10.788;2024-01-30T02:59:45;3.97;;;3.67;;
3337;SDS011;1682;49.286;10.788;2024-01-30T03:02:32;6.57;;;5.97;;
3337;SDS011;1682;49.286;10.788;2024-01-30T03:05:20;4.97;;;4.57;;
3337;SDS011;1682;49.286;10.788;2024-01-30T03:08:07;7.83;;;6.60;;
3337;SDS011;1682;49.286;10.788;2024-01-30T03:10:55;7.40;;;5.03;;
3337;SDS011;1682;49.286;10.788;2024-01-30T03:13:44;9.30;;;6.97;;
3337;SDS011;1682;49.286;10.788;2024-01-30T03:16:31;6.40;;;5.80;;
3337;SDS011;1682;49.286;10.788;2024-01-30T03:19:19;7.47;;;5.53;;
3337;SDS011;1682;49.286;10.788;2024-01-30T03:22:06;10.70;;;7.13;;
3337;SDS011;1682;49.286;10.788;2024-01-30T03:24:54;11.23;;;6.97;;
3337;SDS011;1682;49.286;10.788;2024-01-30T03:27:41;7.53;;;6.27;;
3337;SDS011;1682;49.286;10.788;2024-01-30T03:30:30;9.47;;;6.10;;
3337;SDS011;1682;49.286;10.788;2024-01-30T03:33:18;10.47;;;4.87;;
3337;SDS011;1682;49.286;10.788;2024-01-30T03:36:06;3.83;;;3.53;;
3337;SDS011;1682;49.286;10.788;2024-01-30T03:38:53;5.23;;;2.90;;
3337;SDS011;1682;49.286;10.788;2024-01-30T03:41:41;6.40;;;5.00;;
3337;SDS011;1682;49.286;10.788;2024-01-30T03:44:29;6.90;;;6.30;;
3337;SDS011;1682;49.286;10.788;2024-01-30T03:47:18;5.87;;;5.33;;
3337;SDS011;1682;49.286;10.788;2024-01-30T03:50:06;7.50;;;6.80;;
3337;SDS011;1682;49.286;10.788;2024-01-30T03:52:53;8.60;;;7.30;;
3337;SDS011;1682;49.286;10.788;2024-01-30T03:55:41;7.50;;;6.43;;
3337;SDS011;1682;49.286;10.788;2024-01-30T03:58:29;7.93;;;6.53;;
3337;SDS011;1682;49.286;10.788;2024-01-30T04:01:16;11.17;;;6.30;;
3337;SDS011;1682;49.286;10.788;2024-01-30T04:04:05;4.40;;;4.00;;
3337;SDS011;1682;49.286;10.788;2024-01-30T04:06:53;4.13;;;3.73;;
3337;SDS011;1682;49.286;10.788;2024-01-30T04:09:41;6.10;;;4.23;;
3337;SDS011;1682;49.286;10.788;2024-01-30T04:12:28;9.90;;;6.90;;
3337;SDS011;1682;49.286;10.788;2024-01-30T04:15:15;5.47;;;4.23;;
3337;SDS011;1682;49.286;10.788;2024-01-30T04:18:03;9.30;;;6.67;;
3337;SDS011;1682;49.286;10.788;2024-01-30T04:20:52;8.83;;;8.03;;
3337;SDS011;1682;49.286;10.788;2024-01-30T04:23:40;6.90;;;4.50;;
3337;SDS011;1682;49.286;10.788;2024-01-30T04:26:27;4.47;;;4.23;;
3337;SDS011;1682;49.286;10.788;2024-01-30T04:29:15;7.50;;;6.17;;
3337;SDS011;1682;49.286;10.788;2024-01-30T04:32:03;3.90;;;3.30;;
3337;SDS011;1682;49.286;10.788;2024-01-30T04:34:50;4.23;;;3.87;;
3337;SDS011;1682;49.286;10.788;2024-01-30T04:37:39;9.80;;;4.80;;
3337;SDS011;1682;49.286;10.788;2024-01-30T04:40:27;4.83;;;4.20;;
3337;SDS011;1682;49.286;10.788;2024-01-30T04:43:14;5.40;;;5.00;;
3337;SDS011;1682;49.286;10.788;2024-01-30T04:46:02;10.03;;;5.93;;
3337;SDS011;1682;49.286;10.788;2024-01-30T04:48:49;8.50;;;5.57;;
3337;SDS011;1682;49.286;10.788;2024-01-30T04:51:37;7.70;;;4.93;;
3337;SDS011;1682;49.286;10.788;2024-01-30T04:54:25;6.77;;;4.60;;
3337;SDS011;1682;49.286;10.788;2024-01-30T04:57:13;5.30;;;4.70;;
3337;SDS011;1682;49.286;10.788;2024-01-30T05:00:00;5.13;;;4.83;;
3337;SDS011;1682;49.286;10.788;2024-01-30T05:02:48;6.03;;;4.67;;
3337;SDS011;1682;49.286;10.788;2024-01-30T05:05:36;8.80;;;6.60;;
3337;SDS011;1682;49.286;10.788;2024-01-30T05:08:23;12.73;;;5.00;;
3337;SDS011;1682;49.286;10.788;2024-01-30T05:11:12;7.07;;;6.43;;
3337;SDS011;1682;49.286;10.788;2024-01-30T05:13:59;8.70;;;5.93;;
3337;SDS011;1682;49.286;10.788;2024-01-30T05:16:47;10.90;;;5.17;;
3337;SDS011;1682;49.286;10.788;2024-01-30T05:19:34;6.83;;;6.10;;
3337;SDS011;1682;49.286;10.788;2024-01-30T05:22:22;12.30;;;9.60;;
3337;SDS011;1682;49.286;10.788;2024-01-30T05:25:09;16.20;;;8.97;;
3337;SDS011;1682;49.286;10.788;2024-01-30T05:27:58;9.90;;;8.43;;
3337;SDS011;1682;49.286;10.788;2024-01-30T05:30:46;14.37;;;10.10;;
3337;SDS011;1682;49.286;10.788;2024-01-30T05:33:33;13.03;;;9.40;;
3337;SDS011;1682;49.286;10.788;2024-01-30T05:36:21;14.63;;;8.50;;
3337;SDS011;1682;49.286;10.788;2024-01-30T05:39:08;11.50;;;6.47;;
3337;SDS011;1682;49.286;10.788;2024-01-30T05:41:56;18.60;;;12.17;;
3337;SDS011;1682;49.286;10.788;2024-01-30T05:44:45;14.13;;;10.80;;
3337;SDS011;1682;49.286;10.788;2024-01-30T05:47:33;9.27;;;8.17;;
3337;SDS011;1682;49.286;10.788;2024-01-30T05:50:20;16.83;;;10.70;;
3337;SDS011;1682;49.286;10.788;2024-01-30T05:53:08;20.67;;;13.17;;
3337;SDS011;1682;49.286;10.788;2024-01-30T05:55:56;15.63;;;8.50;;
3337;SDS011;1682;49.286;10.788;2024-01-30T05:58:43;7.90;;;7.00;;
3337;SDS011;1682;49.286;10.788;2024-01-30T06:01:32;8.33;;;7.27;;
3337;SDS011;1682;49.286;10.788;2024-01-30T06:04:20;19.80;;;10.83;;
3337;SDS011;1682;49.286;10.788;2024-01-30T06:07:07;10.13;;;7.50;;
3337;SDS011;1682;49.286;10.788;2024-01-30T06:09:55;11.53;;;9.20;;
3337;SDS011;1682;49.286;10.788;2024-01-30T06:12:42;8.60;;;7.60;;
3337;SDS011;1682;49.286;10.788;2024-01-30T06:15:30;15.30;;;10.13;;
3337;SDS011;1682;49.286;10.788;2024-01-30T06:18:19;18.10;;;9.23;;
3337;SDS011;1682;49.286;10.788;2024-01-30T06:21:07;10.73;;;9.00;;
3337;SDS011;1682;49.286;10.788;2024-01-30T06:23:54;7.90;;;6.23;;
3337;SDS011;1682;49.286;10.788;2024-01-30T06:26:42;10.07;;;6.77;;
3337;SDS011;1682;49.286;10.788;2024-01-30T06:29:29;11.23;;;8.13;;
3337;SDS011;1682;49.286;10.788;2024-01-30T06:32:17;13.67;;;9.23;;
3337;SDS011;1682;49.286;10.788;2024-01-30T06:35:06;14.93;;;10.70;;
3337;SDS011;1682;49.286;10.788;2024-01-30T06:37:55;8.00;;;7.00;;
3337;SDS011;1682;49.286;10.788;2024-01-30T06:40:43;12.27;;;8.97;;
3337;SDS011;1682;49.286;10.788;2024-01-30T06:43:30;22.33;;;12.93;;
3337;SDS011;1682;49.286;10.788;2024-01-30T06:46:18;21.90;;;16.10;;
3337;SDS011;1682;49.286;10.788;2024-01-30T06:49:05;12.60;;;10.17;;
3337;SDS011;1682;49.286;10.788;2024-01-30T06:51:54;10.87;;;8.73;;
3337;SDS011;1682;49.286;10.788;2024-01-30T06:54:42;17.70;;;11.33;;
3337;SDS011;1682;49.286;10.788;2024-01-30T06:57:29;15.10;;;7.90;;
3337;SDS011;1682;49.286;10.788;2024-01-30T07:00:17;11.97;;;10.40;;
3337;SDS011;1682;49.286;10.788;2024-01-30T07:03:05;15.03;;;9.97;;
3337;SDS011;1682;49.286;10.788;2024-01-30T07:05:53;19.37;;;11.20;;
3337;SDS011;1682;49.286;10.788;2024-01-30T07:08:42;18.37;;;13.07;;
3337;SDS011;1682;49.286;10.788;2024-01-30T07:11:29;9.73;;;7.87;;
3337;SDS011;1682;49.286;10.788;2024-01-30T07:14:17;10.70;;;9.00;;
3337;SDS011;1682;49.286;10.788;2024-01-30T07:17:05;14.30;;;11.03;;
3337;SDS011;1682;49.286;10.788;2024-01-30T07:19:52;19.07;;;11.77;;
3337;SDS011;1682;49.286;10.788;2024-01-30T07:22:40;18.27;;;10.80;;
3337;SDS011;1682;49.286;10.788;2024-01-30T07:25:29;17.20;;;9.67;;
3337;SDS011;1682;49.286;10.788;2024-01-30T07:28:16;17.90;;;13.10;;
3337;SDS011;1682;49.286;10.788;2024-01-30T07:31:04;23.20;;;12.40;;
3337;SDS011;1682;49.286;10.788;2024-01-30T07:33:53;20.90;;;12.20;;
3337;SDS011;1682;49.286;10.788;2024-01-30T07:36:40;15.63;;;11.30;;
3337;SDS011;1682;49.286;10.788;2024-01-30T07:39:28;16.33;;;9.23;;
3337;SDS011;1682;49.286;10.788;2024-01-30T07:42:17;17.50;;;9.17;;
3337;SDS011;1682;49.286;10.788;2024-01-30T07:45:04;12.23;;;9.33;;
3337;SDS011;1682;49.286;10.788;2024-01-30T07:47:52;17.10;;;12.37;;
3337;SDS011;1682;49.286;10.788;2024-01-30T07:50:40;22.17;;;13.83;;
3337;SDS011;1682;49.286;10.788;2024-01-30T07:53:27;17.13;;;11.23;;
3337;SDS011;1682;49.286;10.788;2024-01-30T07:56:15;20.23;;;13.33;;
3337;SDS011;1682;49.286;10.788;2024-01-30T07:59:04;24.70;;;16.60;;
3337;SDS011;1682;49.286;10.788;2024-01-30T08:01:51;21.00;;;16.57;;
3337;SDS011;1682;49.286;10.788;2024-01-30T08:04:39;15.40;;;10.70;;
3337;SDS011;1682;49.286;10.788;2024-01-30T08:07:26;11.00;;;9.90;;
3337;SDS011;1682;49.286;10.788;2024-01-30T08:10:15;13.93;;;11.47;;
3337;SDS011;1682;49.286;10.788;2024-01-30T08:13:04;15.83;;;13.47;;
3337;SDS011;1682;49.286;10.788;2024-01-30T08:15:53;22.03;;;14.57;;
3337;SDS011;1682;49.286;10.788;2024-01-30T08:18:40;20.40;;;14.43;;
3337;SDS011;1682;49.286;10.788;2024-01-30T08:21:28;18.47;;;14.67;;
3337;SDS011;1682;49.286;10.788;2024-01-30T08:24:15;21.10;;;14.03;;
3337;SDS011;1682;49.286;10.788;2024-01-30T08:27:03;17.83;;;13.10;;
3337;SDS011;1682;49.286;10.788;2024-01-30T08:29:51;15.13;;;10.87;;
3337;SDS011;1682;49.286;10.788;2024-01-30T08:32:39;13.40;;;11.63;;
3337;SDS011;1682;49.286;10.788;2024-01-30T08:35:27;16.30;;;11.10;;
3337;SDS011;1682;49.286;10.788;2024-01-30T08:38:17;13.20;;;9.30;;
3337;SDS011;1682;49.286;10.788;2024-01-30T08:41:04;14.10;;;10.20;;
3337;SDS011;1682;49.286;10.788;2024-01-30T08:43:52;12.93;;;9.60;;
3337;SDS011;1682;49.286;10.788;2024-01-30T08:46:39;15.00;;;10.37;;
3337;SDS011;1682;49.286;10.788;2024-01-30T08:49:29;10.40;;;9.30;;
3337;SDS011;1682;49.286;10.788;2024-01-30T08:52:16;14.10;;;9.77;;
3337;SDS011;1682;49.286;10.788;2024-01-30T08:55:04;12.47;;;9.63;;
3337;SDS011;1682;49.286;10.788;2024-01-30T08:57:51;13.50;;;9.20;;
3337;SDS011;1682;49.286;10.788;2024-01-30T09:00:39;17.03;;;10.13;;
3337;SDS011;1682;49.286;10.788;2024-01-30T09:03:27;18.87;;;8.90;;
3337;SDS011;1682;49.286;10.788;2024-01-30T09:06:15;12.83;;;8.80;;
3337;SDS011;1682;49.286;10.788;2024-01-30T09:09:03;13.37;;;8.77;;
3337;SDS011;1682;49.286;10.788;2024-01-30T09:11:51;14.67;;;11.87;;
3337;SDS011;1682;49.286;10.788;2024-01-30T09:14:39;13.40;;;11.00;;
3337;SDS011;1682;49.286;10.788;2024-01-30T09:17:27;12.10;;;9.03;;
3337;SDS011;1682;49.286;10.788;2024-01-30T09:20:15;13.10;;;8.20;;
3337;SDS011;1682;49.286;10.788;2024-01-30T09:23:04;11.00;;;9.17;;
3337;SDS011;1682;49.286;10.788;2024-01-30T09:25:51;17.60;;;8.97;;
3337;SDS011;1682;49.286;10.788;2024-01-30T09:28:39;10.17;;;9.13;;
3337;SDS011;1682;49.286;10.788;2024-01-30T09:31:28;11.83;;;9.37;;
3337;SDS011;1682;49.286;10.788;2024-01-30T09:34:15;11.20;;;9.87;;
3337;SDS011;1682;49.286;10.788;2024-01-30T09:37:03;10.50;;;8.53;;
3337;SDS011;1682;49.286;10.788;2024-01-30T09:39:52;11.83;;;9.20;;
3337;SDS011;1682;49.286;10.788;2024-01-30T09:42:39;8.90;;;8.00;;
3337;SDS011;1682;49.286;10.788;2024-01-30T09:45:27;9.57;;;8.37;;
3337;SDS011;1682;49.286;10.788;2024-01-30T09:48:15;10.73;;;8.00;;
3337;SDS011;1682;49.286;10.788;2024-01-30T09:51:02;9.87;;;8.50;;
3337;SDS011;1682;49.286;10.788;2024-01-30T09:53:51;12.00;;;9.60;;
3337;SDS011;1682;49.286;10.788;2024-01-30T09:56:40;16.33;;;10.53;;
3337;SDS011;1682;49.286;10.788;2024-01-30T09:59:28;14.80;;;11.43;;
3337;SDS011;1682;49.286;10.788;2024-01-30T10:02:15;19.80;;;13.10;;
3337;SDS011;1682;49.286;10.788;2024-01-30T10:05:03;13.47;;;10.47;;
3337;SDS011;1682;49.286;10.788;2024-01-30T10:07:52;12.00;;;9.60;;
3337;SDS011;1682;49.286;10.788;2024-01-30T10:10:41;14.27;;;11.00;;
3337;SDS011;1682;49.286;10.788;2024-01-30T10:13:30;16.30;;;10.80;;
3337;SDS011;1682;49.286;10.788;2024-01-30T10:16:17;16.53;;;9.67;;
3337;SDS011;1682;49.286;10.788;2024-01-30T10:19:05;51.60;;;19.53;;
3337;SDS011;1682;49.286;10.788;2024-01-30T10:21:53;23.60;;;13.37;;
3337;SDS011;1682;49.286;10.788;2024-01-30T10:24:40;23.43;;;13.73;;
3337;SDS011;1682;49.286;10.788;2024-01-30T10:27:28;30.73;;;15.13;;
3337;SDS011;1682;49.286;10.788;2024-01-30T10:30:17;25.07;;;14.20;;
3337;SDS011;1682;49.286;10.788;2024-01-30T10:33:04;29.80;;;13.23;;
3337;SDS011;1682;49.286;10.788;2024-01-30T10:35:52;13.00;;;11.27;;
3337;SDS011;1682;49.286;10.788;2024-01-30T10:38:39;17.33;;;11.53;;
3337;SDS011;1682;49.286;10.788;2024-01-30T10:41:30;12.57;;;11.10;;
3337;SDS011;1682;49.286;10.788;2024-01-30T10:44:19;11.77;;;10.43;;
3337;SDS011;1682;49.286;10.788;2024-01-30T10:47:11;10.67;;;9.67;;
3337;SDS011;1682;49.286;10.788;2024-01-30T10:49:59;10.27;;;9.20;;
3337;SDS011;1682;49.286;10.788;2024-01-30T10:52:48;12.10;;;9.50;;
3337;SDS011;1682;49.286;10.788;2024-01-30T10:55:36;10.90;;;8.70;;
3337;SDS011;1682;49.286;10.788;2024-01-30T10:58:24;9.60;;;8.63;;
3337;SDS011;1682;49.286;10.788;2024-01-30T11:01:12;10.70;;;9.60;;
3337;SDS011;1682;49.286;10.788;2024-01-30T11:04:02;10.90;;;9.70;;
3337;SDS011;1682;49.286;10.788;2024-01-30T11:06:50;10.03;;;8.70;;
3337;SDS011;1682;49.286;10.788;2024-01-30T11:09:38;10.50;;;9.40;;
3337;SDS011;1682;49.286;10.788;2024-01-30T11:12:27;10.13;;;8.87;;
3337;SDS011;1682;49.286;10.788;2024-01-30T11:15:15;20.47;;;13.57;;
3337;SDS011;1682;49.286;10.788;2024-01-30T11:18:04;13.73;;;10.73;;
3337;SDS011;1682;49.286;10.788;2024-01-30T11:20:52;14.43;;;10.50;;
3337;SDS011;1682;49.286;10.788;2024-01-30T11:23:43;10.27;;;9.30;;
3337;SDS011;1682;49.286;10.788;2024-01-30T11:26:30;13.73;;;9.53;;
3337;SDS011;1682;49.286;10.788;2024-01-30T11:29:18;9.33;;;8.30;;
3337;SDS011;1682;49.286;10.788;2024-01-30T11:32:06;10.33;;;9.30;;
3337;SDS011;1682;49.286;10.788;2024-01-30T11:34:54;10.50;;;8.70;;
3337;SDS011;1682;49.286;10.788;2024-01-30T11:37:43;10.33;;;9.10;;
3337;SDS011;1682;49.286;10.788;2024-01-30T11:40:35;10.87;;;9.03;;
3337;SDS011;1682;49.286;10.788;2024-01-30T11:43:23;10.60;;;7.87;;
3337;SDS011;1682;49.286;10.788;2024-01-30T11:46:10;9.80;;;7.77;;
3337;SDS011;1682;49.286;10.788;2024-01-30T11:48:58;12.40;;;8.40;;
3337;SDS011;1682;49.286;10.788;2024-01-30T11:51:45;9.33;;;7.90;;
3337;SDS011;1682;49.286;10.788;2024-01-30T11:54:36;8.53;;;7.70;;
3337;SDS011;1682;49.286;10.788;2024-01-30T11:57:27;8.07;;;7.27;;
3337;SDS011;1682;49.286;10.788;2024-01-30T12:00:14;10.20;;;8.37;;
3337;SDS011;1682;49.286;10.788;2024-01-30T12:03:03;12.30;;;10.83;;
3337;SDS011;1682;49.286;10.788;2024-01-30T12:05:56;10.60;;;9.40;;
3337;SDS011;1682;49.286;10.788;2024-01-30T12:08:54;10.50;;;8.37;;
3337;SDS011;1682;49.286;10.788;2024-01-30T12:11:47;10.00;;;8.10;;
3337;SDS011;1682;49.286;10.788;2024-01-30T12:14:35;10.10;;;7.77;;
3337;SDS011;1682;49.286;10.788;2024-01-30T12:17:23;10.57;;;8.23;;
3337;SDS011;1682;49.286;10.788;2024-01-30T12:20:11;9.77;;;8.80;;
3337;SDS011;1682;49.286;10.788;2024-01-30T12:22:59;15.40;;;11.90;;
3337;SDS011;1682;49.286;10.788;2024-01-30T12:25:46;11.67;;;10.50;;
3337;SDS011;1682;49.286;10.788;2024-01-30T12:28:35;9.47;;;7.93;;
3337;SDS011;1682;49.286;10.788;2024-01-30T12:31:26;11.53;;;8.17;;
3337;SDS011;1682;49.286;10.788;2024-01-30T12:34:14;9.03;;;8.10;;
3337;SDS011;1682;49.286;10.788;2024-01-30T12:37:02;7.23;;;6.53;;
3337;SDS011;1682;49.286;10.788;2024-01-30T12:39:52;8.10;;;7.03;;
3337;SDS011;1682;49.286;10.788;2024-01-30T12:42:40;10.93;;;7.13;;
3337;SDS011;1682;49.286;10.788;2024-01-30T12:45:29;9.00;;;7.50;;
3337;SDS011;1682;49.286;10.788;2024-01-30T12:48:17;9.17;;;7.60;;
3337;SDS011;1682;49.286;10.788;2024-01-30T12:51:04;12.80;;;9.60;;
3337;SDS011;1682;49.286;10.788;2024-01-30T12:53:52;10.33;;;7.90;;
3337;SDS011;1682;49.286;10.788;2024-01-30T12:56:40;8.40;;;7.60;;
3337;SDS011;1682;49.286;10.788;2024-01-30T12:59:27;9.60;;;8.70;;
3337;SDS011;1682;49.286;10.788;2024-01-30T13:02:16;22.87;;;12.97;;
3337;SDS011;1682;49.286;10.788;2024-01-30T13:05:04;9.20;;;8.30;;
3337;SDS011;1682;49.286;10.788;2024-01-30T13:07:52;15.17;;;9.97;;
3337;SDS011;1682;49.286;10.788;2024-01-30T13:10:41;9.23;;;8.33;;
3337;SDS011;1682;49.286;10.788;2024-01-30T13:13:28;7.53;;;6.87;;
3337;SDS011;1682;49.286;10.788;2024-01-30T13:16:16;9.37;;;7.57;;
3337;SDS011;1682;49.286;10.788;2024-01-30T13:19:05;11.20;;;6.97;;
3337;SDS011;1682;49.286;10.788;2024-01-30T13:21:52;13.87;;;7.97;;
3337;SDS011;1682;49.286;10.788;2024-01-30T13:24:40;8.80;;;7.50;;
3337;SDS011;1682;49.286;10.788;2024-01-30T13:27:27;13.00;;;7.40;;
3337;SDS011;1682;49.286;10.788;2024-01-30T13:30:15;11.17;;;7.10;;
3337;SDS011;1682;49.286;10.788;2024-01-30T13:33:02;8.07;;;7.27;;
3337;SDS011;1682;49.286;10.788;2024-01-30T13:35:51;10.73;;;7.17;;
3337;SDS011;1682;49.286;10.788;2024-01-30T13:38:39;16.00;;;7.40;;
3337;SDS011;1682;49.286;10.788;2024-01-30T13:41:26;9.43;;;5.97;;
3337;SDS011;1682;49.286;10.788;2024-01-30T13:44:15;11.20;;;7.90;;
3337;SDS011;1682;49.286;10.788;2024-01-30T13:47:03;9.37;;;7.67;;
3337;SDS011;1682;49.286;10.788;2024-01-30T13:49:51;7.90;;;7.20;;
3337;SDS011;1682;49.286;10.788;2024-01-30T13:52:40;9.27;;;7.60;;
3337;SDS011;1682;49.286;10.788;2024-01-30T13:55:28;7.53;;;6.90;;
3337;SDS011;1682;49.286;10.788;2024-01-30T13:58:15;7.97;;;7.27;;
3337;SDS011;1682;49.286;10.788;2024-01-30T14:01:03;10.63;;;7.20;;
3337;SDS011;1682;49.286;10.788;2024-01-30T14:03:51;7.77;;;6.90;;
3337;SDS011;1682;49.286;10.788;2024-01-30T14:06:38;7.90;;;7.03;;
3337;SDS011;1682;49.286;10.788;2024-01-30T14:09:27;11.80;;;7.33;;
3337;SDS011;1682;49.286;10.788;2024-01-30T14:12:15;12.37;;;7.60;;
3337;SDS011;1682;49.286;10.788;2024-01-30T14:15:03;9.77;;;7.87;;
3337;SDS011;1682;49.286;10.788;2024-01-30T14:17:50;9.00;;;7.23;;
3337;SDS011;1682;49.286;10.788;2024-01-30T14:20:38;13.17;;;8.47;;
3337;SDS011;1682;49.286;10.788;2024-01-30T14:23:25;10.60;;;7.67;;
3337;SDS011;1682;49.286;10.788;2024-01-30T14:26:14;8.60;;;7.17;;
3337;SDS011;1682;49.286;10.788;2024-01-30T14:29:02;10.37;;;8.60;;
3337;SDS011;1682;49.286;10.788;2024-01-30T14:31:49;9.83;;;8.83;;
3337;SDS011;1682;49.286;10.788;2024-01-30T14:34:37;9.70;;;8.50;;
3337;SDS011;1682;49.286;10.788;2024-01-30T14:37:24;15.33;;;8.07;;
3337;SDS011;1682;49.286;10.788;2024-01-30T14:40:14;11.50;;;9.53;;
3337;SDS011;1682;49.286;10.788;2024-01-30T14:43:03;8.90;;;8.00;;
3337;SDS011;1682;49.286;10.788;2024-01-30T14:45:51;11.30;;;10.10;;
3337;SDS011;1682;49.286;10.788;2024-01-30T14:48:38;8.50;;;7.80;;
3337;SDS011;1682;49.286;10.788;2024-01-30T14:51:26;8.43;;;7.63;;
3337;SDS011;1682;49.286;10.788;2024-01-30T14:54:15;11.90;;;9.10;;
3337;SDS011;1682;49.286;10.788;2024-01-30T14:57:02;11.90;;;8.83;;
3337;SDS011;1682;49.286;10.788;2024-01-30T14:59:51;10.00;;;8.40;;
3337;SDS011;1682;49.286;10.788;2024-01-30T15:02:39;8.27;;;7.47;;
3337;SDS011;1682;49.286;10.788;2024-01-30T15:05:26;14.40;;;7.67;;
3337;SDS011;1682;49.286;10.788;2024-01-30T15:08:14;8.67;;;7.77;;
3337;SDS011;1682;49.286;10.788;2024-01-30T15:11:01;7.57;;;6.80;;
3337;SDS011;1682;49.286;10.788;2024-01-30T15:13:49;8.60;;;7.80;;
3337;SDS011;1682;49.286;10.788;2024-01-30T15:16:38;14.97;;;9.17;;
3337;SDS011;1682;49.286;10.788;2024-01-30T15:19:26;11.90;;;10.70;;
3337;SDS011;1682;49.286;10.788;2024-01-30T15:22:14;12.33;;;11.23;;
3337;SDS011;1682;49.286;10.788;2024-01-30T15:25:01;16.13;;;12.07;;
3337;SDS011;1682;49.286;10.788;2024-01-30T15:27:49;14.20;;;12.63;;
3337;SDS011;1682;49.286;10.788;2024-01-30T15:30:36;12.13;;;10.67;;
3337;SDS011;1682;49.286;10.788;2024-01-30T15:33:25;12.30;;;9.60;;
3337;SDS011;1682;49.286;10.788;2024-01-30T15:36:13;11.70;;;10.00;;
3337;SDS011;1682;49.286;10.788;2024-01-30T15:39:00;12.80;;;10.43;;
3337;SDS011;1682;49.286;10.788;2024-01-30T15:41:48;16.70;;;11.27;;
3337;SDS011;1682;49.286;10.788;2024-01-30T15:44:36;15.47;;;10.90;;
3337;SDS011;1682;49.286;10.788;2024-01-30T15:47:23;14.50;;;11.00;;
3337;SDS011;1682;49.286;10.788;2024-01-30T15:50:12;10.17;;;9.17;;
3337;SDS011;1682;49.286;10.788;2024-01-30T15:53:00;10.80;;;9.27;;
3337;SDS011;1682;49.286;10.788;2024-01-30T15:55:47;11.57;;;10.03;;
3337;SDS011;1682;49.286;10.788;2024-01-30T15:58:35;12.20;;;9.93;;
3337;SDS011;1682;49.286;10.788;2024-01-30T16:01:22;13.93;;;10.20;;
3337;SDS011;1682;49.286;10.788;2024-01-30T16:04:10;12.97;;;10.93;;
3337;SDS011;1682;49.286;10.788;2024-01-30T16:06:59;12.93;;;9.73;;
3337;SDS011;1682;49.286;10.788;2024-01-30T16:09:46;10.87;;;9.50;;
3337;SDS011;1682;49.286;10.788;2024-01-30T16:12:34;11.43;;;8.50;;
3337;SDS011;1682;49.286;10.788;2024-01-30T16:15:21;9.27;;;8.47;;
3337;SDS011;1682;49.286;10.788;2024-01-30T16:18:10;10.37;;;9.30;;
3337;SDS011;1682;49.286;10.788;2024-01-30T16:20:58;13.40;;;9.07;;
3337;SDS011;1682;49.286;10.788;2024-01-30T16:23:47;10.67;;;9.30;;
3337;SDS011;1682;49.286;10.788;2024-01-30T16:26:34;13.00;;;10.70;;
3337;SDS011;1682;49.286;10.788;2024-01-30T16:29:22;14.10;;;10.67;;
3337;SDS011;1682;49.286;10.788;2024-01-30T16:32:09;12.30;;;9.93;;
3337;SDS011;1682;49.286;10.788;2024-01-30T16:34:57;16.70;;;12.73;;
3337;SDS011;1682;49.286;10.788;2024-01-30T16:37:44;18.17;;;13.00;;
3337;SDS011;1682;49.286;10.788;2024-01-30T16:40:33;25.83;;;13.63;;
3337;SDS011;1682;49.286;10.788;2024-01-30T16:43:21;24.40;;;14.67;;
3337;SDS011;1682;49.286;10.788;2024-01-30T16:46:08;20.13;;;14.67;;
3337;SDS011;1682;49.286;10.788;2024-01-30T16:48:56;22.50;;;13.83;;
3337;SDS011;1682;49.286;10.788;2024-01-30T16:51:44;23.37;;;15.70;;
3337;SDS011;1682;49.286;10.788;2024-01-30T16:54:31;30.30;;;22.63;;